createdAt,value
2023-08-04T00:00:21.850Z,91.49
2023-08-04T00:02:49.129Z,91.56
2023-08-04T00:05:15.812Z,91.41
2023-08-04T00:07:44.161Z,91.55
2023-08-04T00:10:11.112Z,91.56
2023-08-04T00:12:37.838Z,91.43
2023-08-04T00:15:05.274Z,91.83
2023-08-04T00:17:32.137Z,91.69
2023-08-04T00:19:58.739Z,91.96
2023-08-04T00:22:25.410Z,92.05
2023-08-04T00:24:51.993Z,91.65
2023-08-04T00:27:18.522Z,92.01
2023-08-04T00:29:45.253Z,91.98
2023-08-04T00:32:11.747Z,92.04
2023-08-04T00:34:38.431Z,92.20
2023-08-04T00:37:04.950Z,92.12
2023-08-04T00:39:31.849Z,92.27
2023-08-04T00:41:58.435Z,92.53
2023-08-04T00:44:25.059Z,92.41
2023-08-04T00:46:52.417Z,92.54
2023-08-04T00:49:19.750Z,92.53
2023-08-04T00:51:48.190Z,92.92
2023-08-04T00:54:15.217Z,93.03
2023-08-04T00:56:42.780Z,93.03
2023-08-04T00:59:09.351Z,93.32
2023-08-04T01:01:36.229Z,92.98
2023-08-04T01:04:03.143Z,92.93
2023-08-04T01:06:36.864Z,93.40
2023-08-04T01:09:17.599Z,93.29
2023-08-04T01:11:52.381Z,93.40
2023-08-04T01:14:20.049Z,93.12
2023-08-04T01:16:46.540Z,92.91
2023-08-04T01:19:13.015Z,93.10
2023-08-04T01:21:41.937Z,92.98
2023-08-04T01:24:09.011Z,93.01
2023-08-04T01:26:39.786Z,93.02
2023-08-04T01:29:08.888Z,92.95
2023-08-04T01:31:35.969Z,92.81
2023-08-04T01:34:04.143Z,92.51
2023-08-04T01:36:30.682Z,92.04
2023-08-04T01:38:57.407Z,92.38
2023-08-04T01:41:24.006Z,92.51
2023-08-04T01:43:50.587Z,92.46
2023-08-04T01:46:17.125Z,92.38
2023-08-04T01:48:43.769Z,92.61
2023-08-04T01:51:10.315Z,92.72
2023-08-04T01:53:36.840Z,92.53
2023-08-04T01:56:03.899Z,92.96
2023-08-04T01:58:30.562Z,93.33
2023-08-04T02:00:57.196Z,93.47
2023-08-04T02:03:23.777Z,93.42
2023-08-04T02:05:51.497Z,93.34
2023-08-04T02:08:19.193Z,93.63
2023-08-04T02:10:50.306Z,94.01
2023-08-04T02:13:17.076Z,93.85
2023-08-04T02:15:43.695Z,94.04
2023-08-04T02:18:10.331Z,93.84
2023-08-04T02:20:36.910Z,93.45
2023-08-04T02:23:03.940Z,93.95
2023-08-04T02:25:30.517Z,94.18
2023-08-04T02:27:57.100Z,94.28
2023-08-04T02:30:23.773Z,94.13
2023-08-04T02:32:51.995Z,94.63
2023-08-04T02:35:18.889Z,94.46
2023-08-04T02:37:45.571Z,94.84
2023-08-04T02:40:12.553Z,94.29
2023-08-04T02:42:39.222Z,94.60
2023-08-04T02:45:06.884Z,94.83
2023-08-04T02:47:33.449Z,94.67
2023-08-04T02:50:00.056Z,94.79
2023-08-04T02:52:26.627Z,94.74
2023-08-04T02:54:56.892Z,94.82
2023-08-04T02:57:23.534Z,94.72
2023-08-04T02:59:50.081Z,94.94
2023-08-04T03:02:16.653Z,94.82
2023-08-04T03:04:43.326Z,94.83
2023-08-04T03:07:11.350Z,95.09
2023-08-04T03:09:37.915Z,94.74
2023-08-04T03:12:04.875Z,94.88
2023-08-04T03:14:31.427Z,95.01
2023-08-04T03:16:57.987Z,95.12
2023-08-04T03:19:24.597Z,95.13
2023-08-04T03:21:51.220Z,95.25
2023-08-04T03:24:17.912Z,95.53
2023-08-04T03:26:44.606Z,95.35
2023-08-04T03:29:11.395Z,95.44
2023-08-04T03:31:38.056Z,95.05
2023-08-04T03:34:04.732Z,95.12
2023-08-04T03:36:32.254Z,94.71
2023-08-04T03:38:58.805Z,94.87
2023-08-04T03:41:25.425Z,94.84
2023-08-04T03:43:52.016Z,94.77
2023-08-04T03:46:18.626Z,95.05
2023-08-04T03:48:45.328Z,94.45
2023-08-04T03:51:11.913Z,94.81
2023-08-04T03:53:38.466Z,94.48
2023-08-04T03:56:05.350Z,94.00
2023-08-04T03:58:31.871Z,94.48
2023-08-04T04:00:58.491Z,94.57
2023-08-04T04:03:25.173Z,94.71
2023-08-04T04:05:51.737Z,94.95
2023-08-04T04:08:18.455Z,95.78
2023-08-04T04:10:45.032Z,95.73
2023-08-04T04:13:11.575Z,96.28
2023-08-04T04:15:38.130Z,96.60
2023-08-04T04:18:04.719Z,96.28
2023-08-04T04:20:31.314Z,96.24
2023-08-04T04:22:57.876Z,96.58
2023-08-04T04:25:24.403Z,96.78
2023-08-04T04:27:50.993Z,97.01
2023-08-04T04:30:17.722Z,96.78
2023-08-04T04:32:44.397Z,97.01
2023-08-04T04:35:10.987Z,96.91
2023-08-04T04:37:37.578Z,97.42
2023-08-04T04:40:04.584Z,97.75
2023-08-04T04:42:33.765Z,97.43
2023-08-04T04:45:01.316Z,97.73
2023-08-04T04:47:28.998Z,97.15
2023-08-04T04:49:55.552Z,97.46
2023-08-04T04:52:36.814Z,97.15
2023-08-04T04:55:04.945Z,96.97
2023-08-04T04:57:32.086Z,97.27
2023-08-04T04:59:58.635Z,97.56
2023-08-04T05:02:25.283Z,97.26
2023-08-04T05:04:52.887Z,97.66
2023-08-04T05:07:19.479Z,97.78
2023-08-04T05:09:46.054Z,97.70
2023-08-04T05:12:12.586Z,97.82
2023-08-04T05:14:39.206Z,97.88
2023-08-04T05:17:06.043Z,98.15
2023-08-04T05:19:32.642Z,97.77
2023-08-04T05:21:59.267Z,97.41
2023-08-04T05:24:27.144Z,97.73
2023-08-04T05:26:53.765Z,98.19
2023-08-04T05:29:20.354Z,98.47
2023-08-04T05:31:47.512Z,98.22
2023-08-04T05:34:14.162Z,98.07
2023-08-04T05:36:40.697Z,98.03
2023-08-04T05:39:07.268Z,97.95
2023-08-04T05:41:33.816Z,97.96
2023-08-04T05:44:00.336Z,97.47
2023-08-04T05:46:26.965Z,97.57
2023-08-04T05:48:53.593Z,97.18
2023-08-04T05:51:20.066Z,97.39
2023-08-04T05:53:46.706Z,97.25
2023-08-04T05:56:13.356Z,97.33
2023-08-04T05:58:40.092Z,97.44
2023-08-04T06:01:11.706Z,97.82
2023-08-04T06:03:38.392Z,97.93
2023-08-04T06:06:06.048Z,97.63
2023-08-04T06:08:32.708Z,97.35
2023-08-04T06:10:59.775Z,97.38
2023-08-04T06:13:26.506Z,96.85
2023-08-04T06:15:53.150Z,96.83
2023-08-04T06:18:19.733Z,97.05
2023-08-04T06:20:48.934Z,97.30
2023-08-04T06:23:15.957Z,97.79
2023-08-04T06:25:42.663Z,97.41
2023-08-04T06:28:09.314Z,97.62
2023-08-04T06:30:36.055Z,96.88
2023-08-04T06:33:02.693Z,96.69
2023-08-04T06:35:29.377Z,96.57
2023-08-04T06:37:56.062Z,96.41
2023-08-04T06:40:22.737Z,97.56
2023-08-04T06:42:49.372Z,97.52
2023-08-04T06:45:16.514Z,98.18
2023-08-04T06:47:43.129Z,97.97
2023-08-04T06:50:10.379Z,98.32
2023-08-04T06:52:37.026Z,97.39
2023-08-04T06:55:05.870Z,97.39
2023-08-04T06:57:32.805Z,96.96
2023-08-04T06:59:59.407Z,97.53
2023-08-04T07:02:26.042Z,98.35
2023-08-04T07:04:52.749Z,98.19
2023-08-04T07:07:20.506Z,97.85
2023-08-04T07:09:47.067Z,97.78
2023-08-04T07:12:14.003Z,97.60
2023-08-04T07:14:40.725Z,97.65
2023-08-04T07:17:07.401Z,97.68
2023-08-04T07:19:34.052Z,98.06
2023-08-04T07:22:41.001Z,97.87
2023-08-04T07:25:08.219Z,97.13
2023-08-04T07:27:35.154Z,96.78
2023-08-04T07:30:01.898Z,97.62
2023-08-04T07:32:31.711Z,97.15
2023-08-04T07:34:58.337Z,97.51
2023-08-04T07:37:25.074Z,97.64
2023-08-04T07:39:51.714Z,97.89
2023-08-04T07:42:18.370Z,98.45
2023-08-04T07:44:45.015Z,97.42
2023-08-04T07:47:12.653Z,97.12
2023-08-04T07:49:39.320Z,96.75
2023-08-04T07:52:06.698Z,97.49
2023-08-04T07:58:00.764Z,96.65
2023-08-04T08:00:58.652Z,95.88
2023-08-04T08:03:43.499Z,94.67
2023-08-04T08:06:10.701Z,95.14
2023-08-04T08:08:51.186Z,93.64
2023-08-04T08:11:17.967Z,94.40
2023-08-04T08:13:44.729Z,93.63
2023-08-04T08:16:18.678Z,91.95
2023-08-04T08:18:46.493Z,92.67
2023-08-04T08:21:14.023Z,91.57
2023-08-04T08:23:42.667Z,91.37
2023-08-04T08:26:09.335Z,88.92
2023-08-04T08:28:36.223Z,89.46
2023-08-04T08:31:02.908Z,88.80
2023-08-04T08:33:29.637Z,89.12
2023-08-04T08:35:57.188Z,89.51
2023-08-04T08:38:23.847Z,87.80
2023-08-04T08:40:50.487Z,88.90
2023-08-04T08:43:17.418Z,87.31
2023-08-04T08:45:45.657Z,87.85
2023-08-04T08:48:12.770Z,88.35
2023-08-04T08:50:41.948Z,88.25
2023-08-04T08:53:14.758Z,89.02
2023-08-04T08:55:41.952Z,87.94
2023-08-04T08:58:09.546Z,87.97
2023-08-04T09:00:36.454Z,87.59
2023-08-04T09:03:09.998Z,88.71
2023-08-04T09:05:36.896Z,89.69
2023-08-04T09:08:04.333Z,89.19
2023-08-04T09:10:33.473Z,89.46
2023-08-04T09:13:01.643Z,87.51
2023-08-04T09:15:35.624Z,86.91
2023-08-04T09:18:07.735Z,86.04
2023-08-04T09:20:34.457Z,84.48
2023-08-04T09:23:01.848Z,83.50
2023-08-04T09:25:28.512Z,85.26
2023-08-04T09:27:56.775Z,85.62
2023-08-04T09:30:23.788Z,84.88
2023-08-04T09:32:52.057Z,84.19
2023-08-04T09:35:18.871Z,83.53
2023-08-04T09:37:45.619Z,82.72
2023-08-04T09:40:16.593Z,80.69
2023-08-04T09:42:44.104Z,79.00
2023-08-04T09:45:18.441Z,80.30
2023-08-04T09:47:50.344Z,79.07
2023-08-04T09:50:19.726Z,79.72
2023-08-04T09:52:46.924Z,78.03
2023-08-04T09:55:13.760Z,79.50
2023-08-04T09:57:40.606Z,78.98
2023-08-04T10:00:09.885Z,80.48
2023-08-04T10:02:38.238Z,79.84
2023-08-04T10:05:05.685Z,76.30
2023-08-04T10:07:32.840Z,79.06
2023-08-04T10:10:01.904Z,76.79
2023-08-04T10:12:30.379Z,78.19
2023-08-04T10:14:57.913Z,78.10
2023-08-04T10:17:26.404Z,77.59
2023-08-04T10:20:05.226Z,78.13
2023-08-04T10:22:33.471Z,78.45
2023-08-04T10:25:00.531Z,79.08
2023-08-04T10:27:28.009Z,77.05
2023-08-04T10:30:12.050Z,78.93
2023-08-04T10:32:40.706Z,81.66
2023-08-04T10:35:18.653Z,81.11
2023-08-04T10:37:47.751Z,82.09
2023-08-04T10:40:14.473Z,84.33
2023-08-04T10:43:07.331Z,85.11
2023-08-04T10:46:12.120Z,86.07
2023-08-04T10:48:41.855Z,86.33
2023-08-04T10:51:09.664Z,85.40
2023-08-04T10:53:36.977Z,85.52
2023-08-04T10:56:08.397Z,84.87
2023-08-04T10:58:37.270Z,83.69
2023-08-04T11:01:04.096Z,84.65
2023-08-04T11:03:34.649Z,84.19
2023-08-04T11:06:01.724Z,84.63
2023-08-04T11:08:28.624Z,86.91
2023-08-04T11:10:58.529Z,86.32
2023-08-04T11:13:26.752Z,86.99
2023-08-04T11:15:55.152Z,88.60
2023-08-04T11:18:28.513Z,88.06
2023-08-04T11:20:55.530Z,88.90
2023-08-04T11:23:28.458Z,89.67
2023-08-04T11:26:14.877Z,90.37
2023-08-04T11:28:41.661Z,87.14
2023-08-04T11:31:10.104Z,86.34
2023-08-04T11:34:09.008Z,85.86
2023-08-04T11:36:33.592Z,84.92
2023-08-04T11:39:00.322Z,86.17
2023-08-04T11:41:28.931Z,85.69
2023-08-04T11:43:55.752Z,86.41
2023-08-04T11:46:22.764Z,86.52
2023-08-04T11:48:49.420Z,85.55
2023-08-04T11:51:17.431Z,87.17
2023-08-04T11:53:48.324Z,86.53
2023-08-04T11:56:29.681Z,88.40
2023-08-04T11:59:09.992Z,87.79
2023-08-04T12:01:36.816Z,87.99
2023-08-04T12:04:20.410Z,88.22
2023-08-04T12:06:47.112Z,87.71
2023-08-04T12:09:13.879Z,87.55
2023-08-04T12:11:51.257Z,87.41
2023-08-04T12:14:18.496Z,86.43
2023-08-04T12:16:53.609Z,85.42
2023-08-04T12:19:21.984Z,82.61
2023-08-04T12:21:54.829Z,82.37
2023-08-04T12:24:22.455Z,80.17
2023-08-04T12:27:10.775Z,80.51
2023-08-04T12:30:06.076Z,79.60
2023-08-04T12:35:20.480Z,78.02
2023-08-04T12:37:53.717Z,79.70
2023-08-04T12:40:20.519Z,77.24
2023-08-04T12:42:47.197Z,78.65
2023-08-04T12:47:54.585Z,77.69
2023-08-04T12:50:29.630Z,77.16
2023-08-04T12:53:03.464Z,77.44
2023-08-04T12:55:30.179Z,77.47
2023-08-04T12:57:56.752Z,73.97
2023-08-04T13:00:44.822Z,74.33
2023-08-04T13:03:11.524Z,72.91
2023-08-04T13:05:40.103Z,72.32
2023-08-04T13:08:08.240Z,72.68
2023-08-04T13:10:35.560Z,72.71
2023-08-04T13:13:02.461Z,73.22
2023-08-04T13:15:29.985Z,75.81
2023-08-04T13:17:59.544Z,74.22
2023-08-04T13:20:28.979Z,72.38
2023-08-04T13:23:33.253Z,73.59
2023-08-04T13:29:18.992Z,72.96
2023-08-04T13:36:19.099Z,73.31
2023-08-04T13:39:43.478Z,72.69
2023-08-04T13:42:14.827Z,71.18
2023-08-04T13:44:41.402Z,70.26
2023-08-04T13:47:07.994Z,70.86
2023-08-04T13:49:34.721Z,71.35
2023-08-04T13:52:01.538Z,71.96
2023-08-04T13:54:29.342Z,71.46
2023-08-04T13:56:55.916Z,68.40
2023-08-04T13:59:22.522Z,69.43
2023-08-04T14:01:49.706Z,72.63
2023-08-04T14:04:16.724Z,71.30
2023-08-04T14:06:43.417Z,71.17
2023-08-04T14:09:10.047Z,71.38
2023-08-04T14:11:36.617Z,71.20
2023-08-04T14:14:04.008Z,70.78
2023-08-04T14:16:30.622Z,72.41
2023-08-04T14:18:57.233Z,73.18
2023-08-04T14:21:23.819Z,69.36
2023-08-04T14:23:50.497Z,72.25
2023-08-04T14:26:17.670Z,70.67
2023-08-04T14:28:45.128Z,69.53
2023-08-04T14:31:11.939Z,69.31
2023-08-04T14:33:38.612Z,68.42
2023-08-04T14:36:05.248Z,65.62
2023-08-04T14:38:31.952Z,67.55
2023-08-04T14:40:59.021Z,67.38
2023-08-04T14:43:26.665Z,67.30
2023-08-04T14:45:55.426Z,66.26
2023-08-04T14:48:22.200Z,65.58
2023-08-04T14:50:48.859Z,65.33
2023-08-04T14:53:15.677Z,65.42
2023-08-04T14:55:42.238Z,65.34
2023-08-04T14:58:08.915Z,65.35
2023-08-04T15:00:36.162Z,66.93
2023-08-04T15:03:02.985Z,65.50
2023-08-04T15:05:36.042Z,63.26
2023-08-04T15:08:02.817Z,62.50
2023-08-04T15:10:30.508Z,61.49
2023-08-04T15:12:57.180Z,62.37
2023-08-04T15:15:23.852Z,63.38
2023-08-04T15:17:50.538Z,62.67
2023-08-04T15:20:17.481Z,63.36
2023-08-04T15:22:45.049Z,62.05
2023-08-04T15:25:11.693Z,61.13
2023-08-04T15:27:44.321Z,61.32
2023-08-04T15:30:11.190Z,61.22
2023-08-04T15:32:37.794Z,63.23
2023-08-04T15:35:04.589Z,63.10
2023-08-04T15:37:31.166Z,62.39
2023-08-04T15:39:58.092Z,61.86
2023-08-04T15:42:24.919Z,62.48
2023-08-04T15:44:51.640Z,62.44
2023-08-04T15:47:18.444Z,63.13
2023-08-04T15:49:45.669Z,61.45
2023-08-04T15:52:12.309Z,59.45
2023-08-04T15:54:38.990Z,61.65
2023-08-04T15:57:05.948Z,60.13
2023-08-04T15:59:32.585Z,57.65
2023-08-04T16:01:59.306Z,58.89
2023-08-04T16:04:25.965Z,57.87
2023-08-04T16:06:52.596Z,56.85
2023-08-04T16:09:19.220Z,58.35
2023-08-04T16:11:45.881Z,60.40
2023-08-04T16:14:12.581Z,59.81
2023-08-04T16:16:39.400Z,59.85
2023-08-04T16:19:06.619Z,59.75
2023-08-04T16:21:33.357Z,59.80
2023-08-04T16:24:00.033Z,60.05
2023-08-04T16:26:26.710Z,62.28
2023-08-04T16:28:53.335Z,64.28
2023-08-04T16:31:20.216Z,62.63
2023-08-04T16:33:47.063Z,64.26
2023-08-04T16:36:13.717Z,64.44
2023-08-04T16:38:40.340Z,65.15
2023-08-04T16:41:06.960Z,64.51
2023-08-04T16:43:33.751Z,64.53
2023-08-04T16:46:00.545Z,65.02
2023-08-04T16:48:27.348Z,64.93
2023-08-04T16:50:55.077Z,65.55
2023-08-04T16:53:21.706Z,65.89
2023-08-04T16:55:51.042Z,67.15
2023-08-04T16:58:19.400Z,66.81
2023-08-04T17:00:46.568Z,66.89
2023-08-04T17:03:16.047Z,66.05
2023-08-04T17:05:42.608Z,66.64
2023-08-04T17:08:09.253Z,66.56
2023-08-04T17:10:40.333Z,66.92
2023-08-04T17:13:07.337Z,67.87
2023-08-04T17:15:37.935Z,67.92
2023-08-04T17:18:05.888Z,67.71
2023-08-04T17:20:32.594Z,68.34
2023-08-04T17:22:59.264Z,68.75
2023-08-04T17:25:26.372Z,69.22
2023-08-04T17:27:53.156Z,68.72
2023-08-04T17:30:19.773Z,69.51
2023-08-04T17:32:46.570Z,69.26
2023-08-04T17:35:13.248Z,70.14
2023-08-04T17:37:39.861Z,70.95
2023-08-04T17:40:07.862Z,71.04
2023-08-04T17:42:34.480Z,69.73
2023-08-04T17:45:01.152Z,69.29
2023-08-04T17:47:27.773Z,70.29
2023-08-04T17:49:54.449Z,70.29
2023-08-04T17:52:21.006Z,70.01
2023-08-04T17:54:47.786Z,70.29
2023-08-04T17:57:15.147Z,70.66
2023-08-04T17:59:42.541Z,70.21
2023-08-04T18:02:10.710Z,70.21
2023-08-04T18:04:37.520Z,70.75
2023-08-04T18:07:04.314Z,72.19
2023-08-04T18:09:31.959Z,72.21
2023-08-04T18:11:58.672Z,74.30
2023-08-04T18:14:25.363Z,72.59
2023-08-04T18:16:52.257Z,72.34
2023-08-04T18:19:19.366Z,72.94
2023-08-04T18:21:46.157Z,73.51
2023-08-04T18:24:12.896Z,73.99
2023-08-04T18:26:40.702Z,74.39
2023-08-04T18:29:07.268Z,74.38
2023-08-04T18:31:33.928Z,75.18
2023-08-04T18:34:00.532Z,75.24
2023-08-04T18:36:27.308Z,75.82
2023-08-04T18:38:53.897Z,75.78
2023-08-04T18:41:21.025Z,76.59
2023-08-04T18:43:47.661Z,75.84
2023-08-04T18:46:14.384Z,76.99
2023-08-04T18:48:41.141Z,77.52
2023-08-04T18:51:07.794Z,77.85
2023-08-04T18:53:34.507Z,78.55
2023-08-04T18:56:01.366Z,79.05
2023-08-04T18:58:28.066Z,79.72
2023-08-04T19:00:54.777Z,80.62
2023-08-04T19:03:21.563Z,80.76
2023-08-04T19:05:48.361Z,80.38
2023-08-04T19:08:15.056Z,81.02
2023-08-04T19:10:42.311Z,81.37
2023-08-04T19:13:09.095Z,81.27
2023-08-04T19:15:35.803Z,82.01
2023-08-04T19:18:02.470Z,81.60
2023-08-04T19:20:29.110Z,81.38
2023-08-04T19:22:55.894Z,82.72
2023-08-04T19:25:22.504Z,82.55
2023-08-04T19:27:49.001Z,82.09
2023-08-04T19:30:17.742Z,82.98
2023-08-04T19:32:44.456Z,83.01
2023-08-04T19:35:11.117Z,83.63
2023-08-04T19:37:38.406Z,83.93
2023-08-04T19:40:05.693Z,84.20
2023-08-04T19:42:32.522Z,84.25
2023-08-04T19:44:59.067Z,84.26
2023-08-04T19:47:25.788Z,84.53
2023-08-04T19:49:53.256Z,85.00
2023-08-04T19:52:19.878Z,85.32
2023-08-04T19:54:46.498Z,85.76
2023-08-04T19:57:15.804Z,85.50
2023-08-04T19:59:42.809Z,85.79
2023-08-04T20:02:09.359Z,85.82
2023-08-04T20:04:38.740Z,85.42
2023-08-04T20:07:07.609Z,86.26
2023-08-04T20:09:34.279Z,86.15
2023-08-04T20:12:01.020Z,86.50
2023-08-04T20:14:27.653Z,87.33
2023-08-04T20:16:54.305Z,87.78
2023-08-04T20:19:20.965Z,88.22
2023-08-04T20:21:48.642Z,88.33
2023-08-04T20:24:38.678Z,87.22
2023-08-04T20:27:06.688Z,88.52
2023-08-04T20:29:35.931Z,88.77
2023-08-04T20:32:03.930Z,89.25
2023-08-04T20:34:30.523Z,89.80
2023-08-04T20:37:00.689Z,89.66
2023-08-04T20:39:27.334Z,89.55
2023-08-04T20:41:54.391Z,90.43
2023-08-04T20:44:20.995Z,90.96
2023-08-04T20:46:47.814Z,91.03
2023-08-04T20:49:16.763Z,91.03
2023-08-04T20:51:43.430Z,90.70
2023-08-04T20:54:10.114Z,90.83
2023-08-04T20:56:36.836Z,91.24
2023-08-04T20:59:03.604Z,91.33
2023-08-04T21:01:30.197Z,91.94
2023-08-04T21:03:56.990Z,92.07
2023-08-04T21:06:23.648Z,92.22
2023-08-04T21:08:50.324Z,92.31
2023-08-04T21:11:19.550Z,91.64
2023-08-04T21:13:46.463Z,91.59
2023-08-04T21:16:13.129Z,91.38
2023-08-04T21:18:40.038Z,91.19
2023-08-04T21:21:08.041Z,91.30
2023-08-04T21:23:34.696Z,91.15
2023-08-04T21:26:04.261Z,91.47
2023-08-04T21:28:30.818Z,91.49
2023-08-04T21:30:57.447Z,91.68
2023-08-04T21:33:24.018Z,91.16
2023-08-04T21:36:10.501Z,91.62
2023-08-04T21:38:37.123Z,91.75
2023-08-04T21:41:05.814Z,92.58
2023-08-04T21:43:33.058Z,92.31
2023-08-04T21:46:11.471Z,92.31
2023-08-04T21:48:38.581Z,92.71
2023-08-04T21:51:15.538Z,91.97
2023-08-04T21:53:42.704Z,92.45
2023-08-04T21:56:09.519Z,92.12
2023-08-04T21:58:36.175Z,92.57
2023-08-04T22:01:06.794Z,92.07
2023-08-04T22:03:34.321Z,92.39
2023-08-04T22:06:01.161Z,91.87
2023-08-04T22:08:27.688Z,92.27
2023-08-04T22:10:54.303Z,92.30
2023-08-04T22:13:20.859Z,92.34
2023-08-04T22:15:47.470Z,92.36
2023-08-04T22:18:14.018Z,92.40
2023-08-04T22:20:40.775Z,92.91
2023-08-04T22:23:07.337Z,92.86
2023-08-04T22:25:34.072Z,92.28
2023-08-04T22:28:00.688Z,91.60
2023-08-04T22:30:27.285Z,92.22
2023-08-04T22:32:53.870Z,92.62
2023-08-04T22:35:20.508Z,91.69
2023-08-04T22:37:52.084Z,91.74
2023-08-04T22:40:18.565Z,91.82
2023-08-04T22:42:45.140Z,91.30
2023-08-04T22:45:11.755Z,91.25
2023-08-04T22:47:38.384Z,91.81
2023-08-04T22:50:05.322Z,91.79
2023-08-04T22:52:31.911Z,92.11
2023-08-04T22:54:58.586Z,92.66
2023-08-04T22:57:25.170Z,92.65
2023-08-04T22:59:52.104Z,92.28
2023-08-04T23:02:18.862Z,92.19
2023-08-04T23:04:45.454Z,92.81
2023-08-04T23:07:12.084Z,93.04
2023-08-04T23:09:43.192Z,93.15
2023-08-04T23:12:09.927Z,93.10
2023-08-04T23:14:36.465Z,93.03
2023-08-04T23:17:03.208Z,92.97
2023-08-04T23:19:29.860Z,92.70
2023-08-04T23:21:56.436Z,92.91
2023-08-04T23:24:23.114Z,92.89
2023-08-04T23:26:50.622Z,92.81
2023-08-04T23:29:18.569Z,92.73
2023-08-04T23:31:46.189Z,93.04
2023-08-04T23:34:12.738Z,92.74
2023-08-04T23:36:39.415Z,92.01
2023-08-04T23:39:05.976Z,92.55
2023-08-04T23:41:32.559Z,92.73
2023-08-04T23:43:59.108Z,92.74
2023-08-04T23:46:26.267Z,92.78
2023-08-04T23:48:52.977Z,92.65
2023-08-04T23:51:19.576Z,92.90
2023-08-04T23:53:46.164Z,93.08
2023-08-04T23:56:12.705Z,93.17
2023-08-04T23:58:39.453Z,92.82
